createdAt,value
2022-10-26T00:01:23.404Z,84.99
2022-10-26T00:03:51.872Z,85.08
2022-10-26T00:06:24.998Z,85.11
2022-10-26T00:08:56.590Z,85.17
2022-10-26T00:11:25.626Z,85.19
2022-10-26T00:13:53.405Z,85.14
2022-10-26T00:16:26.930Z,85.16
2022-10-26T00:18:55.034Z,85.20
2022-10-26T00:21:22.840Z,85.22
2022-10-26T00:23:50.508Z,85.22
2022-10-26T00:26:19.802Z,85.28
2022-10-26T00:28:47.681Z,85.31
2022-10-26T00:31:17.793Z,85.30
2022-10-26T00:33:46.768Z,85.38
2022-10-26T00:36:17.700Z,85.42
2022-10-26T00:38:56.151Z,85.43
2022-10-26T00:41:29.902Z,85.44
2022-10-26T00:43:58.458Z,85.40
2022-10-26T00:46:44.296Z,85.44
2022-10-26T00:49:21.582Z,85.48
2022-10-26T00:51:53.632Z,85.51
2022-10-26T00:54:22.882Z,85.54
2022-10-26T00:56:54.661Z,85.58
2022-10-26T00:59:24.346Z,85.63
2022-10-26T01:01:53.686Z,85.68
2022-10-26T01:04:22.784Z,85.68
2022-10-26T01:06:52.453Z,85.63
2022-10-26T01:09:21.870Z,85.71
2022-10-26T01:11:49.505Z,85.75
2022-10-26T01:14:20.034Z,85.83
2022-10-26T01:17:12.001Z,85.78
2022-10-26T01:20:27.760Z,85.79
2022-10-26T01:23:06.644Z,85.89
2022-10-26T01:26:04.536Z,85.90
2022-10-26T01:28:59.466Z,85.91
2022-10-26T01:31:40.241Z,85.99
2022-10-26T01:34:38.813Z,86.02
2022-10-26T01:37:15.591Z,86.02
2022-10-26T01:39:53.691Z,86.05
2022-10-26T01:42:24.513Z,86.07
2022-10-26T01:45:02.223Z,86.10
2022-10-26T01:47:35.135Z,86.12
2022-10-26T01:50:05.884Z,86.08
2022-10-26T01:52:34.863Z,86.08
2022-10-26T01:55:27.093Z,86.10
2022-10-26T01:58:07.025Z,86.20
2022-10-26T02:00:45.314Z,86.25
2022-10-26T02:03:30.547Z,86.33
2022-10-26T02:06:15.978Z,86.37
2022-10-26T02:09:12.282Z,86.38
2022-10-26T02:11:46.871Z,86.36
2022-10-26T02:14:42.267Z,86.31
2022-10-26T02:17:29.801Z,86.33
2022-10-26T02:20:07.702Z,86.28
2022-10-26T02:22:41.428Z,86.25
2022-10-26T02:25:16.915Z,86.19
2022-10-26T02:27:54.448Z,86.11
2022-10-26T02:30:23.051Z,86.03
2022-10-26T02:32:55.297Z,86.00
2022-10-26T02:35:30.985Z,85.98
2022-10-26T02:38:04.734Z,86.01
2022-10-26T02:40:34.758Z,86.01
2022-10-26T02:43:08.733Z,85.97
2022-10-26T02:45:47.550Z,85.97
2022-10-26T02:48:16.452Z,85.95
2022-10-26T02:51:07.412Z,85.94
2022-10-26T02:54:08.584Z,85.94
2022-10-26T02:56:48.586Z,85.97
2022-10-26T02:59:19.610Z,86.02
2022-10-26T03:01:48.538Z,86.02
2022-10-26T03:04:16.338Z,86.01
2022-10-26T03:06:54.493Z,86.01
2022-10-26T03:09:24.871Z,86.01
2022-10-26T03:11:54.335Z,86.02
2022-10-26T03:14:22.119Z,86.01
2022-10-26T03:19:22.612Z,86.04
2022-10-26T03:21:50.271Z,86.03
2022-10-26T03:24:17.931Z,86.01
2022-10-26T03:26:47.359Z,86.00
2022-10-26T03:29:15.110Z,86.00
2022-10-26T03:31:42.910Z,85.97
2022-10-26T03:34:10.538Z,86.00
2022-10-26T03:36:41.003Z,85.98
2022-10-26T03:39:09.759Z,86.03
2022-10-26T03:41:37.452Z,86.01
2022-10-26T03:44:07.136Z,85.91
2022-10-26T03:46:34.734Z,85.87
2022-10-26T03:49:02.378Z,85.85
2022-10-26T03:51:30.294Z,85.84
2022-10-26T03:53:57.938Z,85.91
2022-10-26T03:56:27.004Z,85.93
2022-10-26T03:58:56.966Z,85.89
2022-10-26T04:01:26.916Z,85.88
2022-10-26T04:03:54.725Z,85.85
2022-10-26T04:06:24.457Z,85.82
2022-10-26T04:08:54.603Z,85.83
2022-10-26T04:11:22.212Z,85.81
2022-10-26T04:13:49.906Z,85.78
2022-10-26T04:16:17.530Z,85.76
2022-10-26T04:18:47.234Z,85.74
2022-10-26T04:21:17.198Z,85.75
2022-10-26T04:23:45.548Z,85.75
2022-10-26T04:26:14.367Z,85.77
2022-10-26T04:28:42.024Z,85.82
2022-10-26T04:31:09.688Z,85.84
2022-10-26T04:33:37.395Z,85.89
2022-10-26T04:36:05.415Z,85.91
2022-10-26T04:38:35.362Z,85.93
2022-10-26T04:41:03.150Z,85.92
2022-10-26T04:43:30.800Z,85.89
2022-10-26T04:45:59.075Z,85.88
2022-10-26T04:48:27.037Z,85.85
2022-10-26T04:50:54.940Z,85.85
2022-10-26T04:53:22.602Z,85.85
2022-10-26T04:55:50.248Z,85.86
2022-10-26T04:58:18.134Z,85.82
2022-10-26T05:00:45.841Z,85.79
2022-10-26T05:03:13.730Z,85.76
2022-10-26T05:05:41.477Z,85.75
2022-10-26T05:08:09.346Z,85.73
2022-10-26T05:10:37.140Z,85.72
2022-10-26T05:13:04.958Z,85.74
2022-10-26T05:15:32.690Z,85.76
2022-10-26T05:18:04.094Z,85.75
2022-10-26T05:20:35.071Z,85.74
2022-10-26T05:23:08.756Z,85.75
2022-10-26T05:25:39.546Z,85.75
2022-10-26T05:28:11.814Z,85.75
2022-10-26T05:30:42.476Z,85.77
2022-10-26T05:33:14.279Z,85.81
2022-10-26T05:35:44.155Z,85.84
2022-10-26T05:38:18.255Z,85.84
2022-10-26T05:40:54.212Z,85.82
2022-10-26T05:43:24.356Z,85.83
2022-10-26T05:45:52.089Z,85.84
2022-10-26T05:48:22.764Z,85.84
2022-10-26T05:50:50.500Z,85.84
2022-10-26T05:53:18.332Z,85.83
2022-10-26T05:55:48.058Z,85.79
2022-10-26T05:58:18.173Z,85.77
2022-10-26T06:01:09.528Z,85.71
2022-10-26T06:04:08.234Z,85.64
2022-10-26T06:06:47.206Z,85.57
2022-10-26T06:09:15.304Z,85.52
2022-10-26T06:11:45.086Z,85.47
2022-10-26T06:14:13.138Z,85.43
2022-10-26T06:17:03.438Z,85.39
2022-10-26T06:19:37.644Z,85.35
2022-10-26T06:22:43.321Z,85.31
2022-10-26T06:25:32.555Z,85.27
2022-10-26T06:28:38.772Z,85.22
2022-10-26T06:31:08.703Z,85.16
2022-10-26T06:33:38.450Z,85.07
2022-10-26T06:36:23.780Z,84.96
2022-10-26T06:38:59.863Z,84.87
2022-10-26T06:41:34.451Z,84.78
2022-10-26T06:44:05.308Z,84.72
2022-10-26T06:46:53.397Z,84.61
2022-10-26T06:49:34.162Z,84.50
2022-10-26T06:52:13.623Z,84.42
2022-10-26T06:54:47.354Z,84.25
2022-10-26T06:57:23.560Z,84.15
2022-10-26T07:00:02.170Z,83.92
2022-10-26T07:02:32.923Z,83.88
2022-10-26T07:05:03.633Z,83.79
2022-10-26T07:07:33.603Z,83.56
2022-10-26T07:10:03.595Z,83.30
2022-10-26T07:12:33.277Z,83.07
2022-10-26T07:15:05.965Z,82.98
2022-10-26T07:17:43.970Z,82.89
2022-10-26T07:20:14.087Z,82.71
2022-10-26T07:22:44.436Z,82.52
2022-10-26T07:25:13.872Z,82.30
2022-10-26T07:27:41.536Z,82.10
2022-10-26T07:30:11.536Z,81.84
2022-10-26T07:32:41.020Z,81.69
2022-10-26T07:35:08.902Z,81.45
2022-10-26T07:37:36.720Z,81.21
2022-10-26T07:40:07.120Z,80.93
2022-10-26T07:42:41.018Z,80.58
2022-10-26T07:45:10.999Z,80.47
2022-10-26T07:47:38.774Z,80.48
2022-10-26T07:50:08.716Z,80.25
2022-10-26T07:52:38.802Z,80.39
2022-10-26T07:55:10.317Z,80.11
2022-10-26T07:57:40.158Z,80.35
2022-10-26T08:00:11.238Z,80.42
2022-10-26T08:02:39.001Z,80.32
2022-10-26T08:05:06.950Z,80.48
2022-10-26T08:07:43.449Z,80.59
2022-10-26T08:10:13.848Z,80.77
2022-10-26T08:12:44.164Z,80.83
2022-10-26T08:15:12.018Z,80.85
2022-10-26T08:17:41.486Z,80.94
2022-10-26T08:20:11.506Z,81.04
2022-10-26T08:22:39.312Z,81.09
2022-10-26T08:25:07.244Z,81.21
2022-10-26T08:27:36.760Z,81.18
2022-10-26T08:30:04.855Z,81.15
2022-10-26T08:32:34.340Z,81.18
2022-10-26T08:35:01.967Z,80.85
2022-10-26T08:37:31.593Z,80.82
2022-10-26T08:40:00.707Z,80.72
2022-10-26T08:42:40.464Z,78.98
2022-10-26T08:45:36.862Z,78.91
2022-10-26T08:48:17.353Z,77.02
2022-10-26T08:50:57.816Z,76.44
2022-10-26T08:53:38.631Z,75.98
2022-10-26T08:56:20.482Z,74.82
2022-10-26T08:59:20.568Z,73.42
2022-10-26T09:01:50.936Z,73.14
2022-10-26T09:04:28.896Z,73.45
2022-10-26T09:07:25.032Z,71.11
2022-10-26T09:10:14.720Z,64.21
2022-10-26T09:13:03.029Z,56.27
2022-10-26T09:16:03.014Z,53.37
2022-10-26T09:18:49.297Z,53.54
2022-10-26T09:21:42.416Z,53.59
2022-10-26T09:24:24.839Z,55.99
2022-10-26T09:27:00.099Z,57.96
2022-10-26T09:29:35.350Z,59.67
2022-10-26T09:32:16.147Z,58.65
2022-10-26T09:34:55.377Z,59.82
2022-10-26T09:37:37.010Z,59.27
2022-10-26T09:40:20.081Z,60.07
2022-10-26T09:43:06.010Z,60.29
2022-10-26T09:45:39.348Z,60.65
2022-10-26T09:48:47.559Z,61.16
2022-10-26T09:51:19.915Z,59.90
2022-10-26T09:53:50.143Z,59.81
2022-10-26T09:56:19.748Z,61.02
2022-10-26T09:59:05.724Z,60.52
2022-10-26T10:01:41.396Z,60.05
2022-10-26T10:04:14.426Z,60.22
2022-10-26T10:06:45.469Z,60.23
2022-10-26T10:09:24.795Z,60.21
2022-10-26T10:11:58.036Z,60.91
2022-10-26T10:14:28.223Z,60.51
2022-10-26T10:17:00.442Z,60.98
2022-10-26T10:19:31.658Z,60.04
2022-10-26T10:22:09.855Z,59.73
2022-10-26T10:24:43.308Z,59.39
2022-10-26T10:27:16.941Z,59.99
2022-10-26T10:29:52.039Z,61.17
2022-10-26T10:32:24.110Z,61.09
2022-10-26T10:34:57.020Z,60.97
2022-10-26T10:37:30.694Z,61.53
2022-10-26T10:40:06.999Z,61.69
2022-10-26T10:42:41.723Z,61.70
2022-10-26T10:45:22.035Z,60.97
2022-10-26T10:48:06.713Z,59.14
2022-10-26T10:50:36.620Z,58.95
2022-10-26T10:53:24.542Z,59.96
2022-10-26T10:56:21.804Z,59.50
2022-10-26T10:59:26.386Z,59.67
2022-10-26T11:02:36.281Z,59.41
2022-10-26T11:05:09.991Z,59.51
2022-10-26T11:07:52.619Z,59.88
2022-10-26T11:10:26.895Z,58.34
2022-10-26T11:13:03.197Z,59.01
2022-10-26T11:15:38.874Z,59.66
2022-10-26T11:18:18.251Z,59.33
2022-10-26T11:20:54.488Z,60.12
2022-10-26T11:23:51.255Z,59.48
2022-10-26T11:26:35.942Z,59.18
2022-10-26T11:29:18.806Z,59.36
2022-10-26T11:31:56.032Z,60.26
2022-10-26T11:34:35.434Z,59.89
2022-10-26T11:37:38.458Z,59.79
2022-10-26T11:40:30.085Z,60.54
2022-10-26T11:43:20.620Z,60.89
2022-10-26T11:46:15.273Z,60.80
2022-10-26T11:49:00.595Z,61.00
2022-10-26T11:51:54.373Z,61.38
2022-10-26T11:54:52.299Z,60.04
2022-10-26T11:57:24.347Z,58.70
2022-10-26T12:00:08.057Z,59.13
2022-10-26T12:02:59.803Z,59.04
2022-10-26T12:05:34.350Z,58.56
2022-10-26T12:08:16.449Z,57.94
2022-10-26T12:10:50.692Z,57.68
2022-10-26T12:13:32.092Z,58.39
2022-10-26T12:16:15.061Z,58.59
2022-10-26T12:19:05.534Z,58.44
2022-10-26T12:21:35.516Z,58.08
2022-10-26T12:24:25.341Z,58.24
2022-10-26T12:26:58.672Z,59.09
2022-10-26T12:29:30.381Z,59.74
2022-10-26T12:31:59.914Z,60.07
2022-10-26T12:34:30.445Z,60.60
2022-10-26T12:36:58.148Z,60.96
2022-10-26T12:39:37.790Z,61.27
2022-10-26T12:42:10.251Z,61.58
2022-10-26T12:44:50.279Z,61.85
2022-10-26T12:47:30.289Z,61.86
2022-10-26T12:50:05.903Z,61.77
2022-10-26T12:52:49.066Z,62.24
2022-10-26T12:55:48.193Z,62.41
2022-10-26T12:59:04.337Z,62.80
2022-10-26T13:01:40.724Z,63.11
2022-10-26T13:04:33.152Z,63.37
2022-10-26T13:07:23.625Z,63.12
2022-10-26T13:10:03.480Z,62.69
2022-10-26T13:12:54.483Z,62.45
2022-10-26T13:15:27.994Z,61.97
2022-10-26T13:18:20.473Z,62.08
2022-10-26T13:21:15.122Z,61.29
2022-10-26T13:23:47.841Z,61.20
2022-10-26T13:26:19.690Z,61.16
2022-10-26T13:28:57.310Z,61.53
2022-10-26T13:31:36.119Z,60.99
2022-10-26T13:34:12.678Z,60.74
2022-10-26T13:37:13.580Z,60.45
2022-10-26T13:39:49.572Z,60.75
2022-10-26T13:42:27.152Z,59.90
2022-10-26T13:45:07.349Z,60.00
2022-10-26T13:47:53.698Z,60.09
2022-10-26T13:50:30.019Z,60.10
2022-10-26T13:53:12.303Z,59.53
2022-10-26T13:55:55.062Z,59.56
2022-10-26T13:58:34.736Z,60.04
2022-10-26T14:01:14.959Z,59.95
2022-10-26T14:03:45.165Z,59.12
2022-10-26T14:06:33.964Z,59.68
2022-10-26T14:09:15.942Z,59.18
2022-10-26T14:11:53.474Z,59.53
2022-10-26T14:14:37.161Z,60.13
2022-10-26T14:17:09.999Z,60.44
2022-10-26T14:19:41.669Z,60.57
2022-10-26T14:22:23.127Z,60.14
2022-10-26T14:27:40.723Z,60.32
2022-10-26T14:30:29.529Z,60.65
2022-10-26T14:32:59.736Z,60.98
2022-10-26T14:35:37.717Z,60.85
2022-10-26T14:38:27.107Z,60.84
2022-10-26T14:40:59.172Z,60.82
2022-10-26T14:43:27.532Z,60.79
2022-10-26T14:45:57.096Z,60.76
2022-10-26T14:48:34.000Z,60.82
2022-10-26T14:51:16.264Z,60.93
2022-10-26T14:53:53.169Z,61.14
2022-10-26T14:56:41.876Z,61.39
2022-10-26T14:59:19.495Z,61.35
2022-10-26T15:02:00.608Z,61.69
2022-10-26T15:04:38.787Z,61.96
2022-10-26T15:07:12.567Z,62.18
2022-10-26T15:09:46.867Z,62.46
2022-10-26T15:12:34.867Z,62.61
2022-10-26T15:15:15.141Z,62.83
2022-10-26T15:17:56.710Z,62.84
2022-10-26T15:20:28.957Z,63.53
2022-10-26T15:23:01.873Z,63.99
2022-10-26T15:25:36.036Z,64.37
2022-10-26T15:28:32.873Z,64.86
2022-10-26T15:31:15.480Z,65.24
2022-10-26T15:33:52.385Z,65.59
2022-10-26T15:36:23.869Z,65.90
2022-10-26T15:38:57.530Z,66.10
2022-10-26T15:41:42.943Z,66.47
2022-10-26T15:44:19.340Z,66.81
2022-10-26T15:46:49.829Z,67.16
2022-10-26T15:49:21.390Z,67.40
2022-10-26T15:51:49.292Z,67.54
2022-10-26T15:54:19.662Z,67.72
2022-10-26T15:56:49.788Z,68.03
2022-10-26T15:59:20.630Z,68.37
2022-10-26T16:01:48.463Z,68.68
2022-10-26T16:04:20.182Z,68.92
2022-10-26T16:06:47.881Z,69.12
2022-10-26T16:09:18.936Z,69.23
2022-10-26T16:11:46.717Z,69.52
2022-10-26T16:14:14.362Z,69.67
2022-10-26T16:16:42.026Z,69.90
2022-10-26T16:19:29.956Z,70.32
2022-10-26T16:22:02.479Z,70.76
2022-10-26T16:24:33.053Z,70.95
2022-10-26T16:27:00.754Z,71.23
2022-10-26T16:29:28.517Z,71.38
2022-10-26T16:31:56.189Z,71.43
2022-10-26T16:34:23.878Z,71.62
2022-10-26T16:36:51.575Z,71.97
2022-10-26T16:39:20.047Z,72.33
2022-10-26T16:41:51.342Z,72.53
2022-10-26T16:44:19.006Z,72.68
2022-10-26T16:46:46.697Z,72.98
2022-10-26T16:49:14.376Z,73.16
2022-10-26T16:51:42.079Z,73.28
2022-10-26T16:54:09.770Z,73.49
2022-10-26T16:56:39.512Z,74.41
2022-10-26T16:59:10.966Z,75.69
2022-10-26T17:01:38.676Z,75.50
2022-10-26T17:04:11.251Z,75.14
2022-10-26T17:06:38.882Z,75.24
2022-10-26T17:09:06.659Z,75.07
2022-10-26T17:11:34.387Z,75.09
2022-10-26T17:14:02.244Z,75.12
2022-10-26T17:16:30.055Z,75.13
2022-10-26T17:18:57.730Z,75.31
2022-10-26T17:21:33.090Z,75.49
2022-10-26T17:24:03.628Z,75.67
2022-10-26T17:26:31.314Z,75.67
2022-10-26T17:29:01.272Z,75.75
2022-10-26T17:31:32.974Z,75.94
2022-10-26T17:34:00.807Z,76.02
2022-10-26T17:36:28.644Z,76.19
2022-10-26T17:38:59.476Z,76.26
2022-10-26T17:41:28.346Z,76.39
2022-10-26T17:43:56.195Z,76.58
2022-10-26T17:46:27.267Z,76.94
2022-10-26T17:48:58.605Z,77.04
2022-10-26T17:51:29.365Z,77.15
2022-10-26T17:53:59.294Z,77.19
2022-10-26T17:56:29.946Z,77.45
2022-10-26T17:59:05.589Z,77.51
2022-10-26T18:01:33.649Z,77.68
2022-10-26T18:04:03.856Z,77.84
2022-10-26T18:06:31.663Z,77.95
2022-10-26T18:09:01.593Z,77.97
2022-10-26T18:13:58.902Z,78.01
2022-10-26T18:16:28.918Z,79.00
2022-10-26T18:19:04.798Z,79.10
2022-10-26T18:21:39.189Z,79.29
2022-10-26T18:24:12.657Z,79.13
2022-10-26T18:26:40.348Z,78.90
2022-10-26T18:29:13.424Z,78.89
2022-10-26T18:31:41.379Z,78.92
2022-10-26T18:34:11.293Z,78.81
2022-10-26T18:36:39.001Z,78.78
2022-10-26T18:39:08.938Z,78.75
2022-10-26T18:41:36.677Z,78.86
2022-10-26T18:44:04.641Z,78.92
2022-10-26T18:46:42.668Z,78.99
2022-10-26T18:49:14.076Z,79.00
2022-10-26T18:51:41.950Z,79.07
2022-10-26T18:54:10.102Z,79.11
2022-10-26T18:56:38.289Z,79.24
2022-10-26T18:59:09.215Z,79.41
2022-10-26T19:01:42.077Z,79.41
2022-10-26T19:04:12.740Z,79.42
2022-10-26T19:06:47.654Z,79.44
2022-10-26T19:09:20.475Z,79.49
2022-10-26T19:11:48.274Z,79.65
2022-10-26T19:14:18.871Z,79.65
2022-10-26T19:16:52.598Z,79.82
2022-10-26T19:19:25.379Z,79.92
2022-10-26T19:21:53.865Z,79.95
2022-10-26T19:24:25.200Z,79.99
2022-10-26T19:26:59.858Z,79.97
2022-10-26T19:29:27.584Z,79.92
2022-10-26T19:31:55.467Z,80.01
2022-10-26T19:34:26.500Z,80.37
2022-10-26T19:36:54.218Z,80.75
2022-10-26T19:39:27.182Z,81.01
2022-10-26T19:41:54.877Z,81.03
2022-10-26T19:44:25.464Z,81.21
2022-10-26T19:46:54.240Z,81.30
2022-10-26T19:49:22.050Z,81.24
2022-10-26T19:51:49.671Z,81.20
2022-10-26T19:54:20.373Z,81.21
2022-10-26T19:56:48.069Z,81.32
2022-10-26T19:59:15.884Z,81.77
2022-10-26T20:01:43.610Z,81.77
2022-10-26T20:04:11.532Z,81.85
2022-10-26T20:06:44.329Z,81.74
2022-10-26T20:09:12.050Z,81.87
2022-10-26T20:11:45.548Z,81.89
2022-10-26T20:14:17.279Z,81.97
2022-10-26T20:16:45.073Z,81.99
2022-10-26T20:19:12.876Z,81.89
2022-10-26T20:21:40.558Z,81.91
2022-10-26T20:24:10.230Z,82.03
2022-10-26T20:26:40.109Z,82.53
2022-10-26T20:29:07.917Z,83.09
2022-10-26T20:31:38.633Z,83.38
2022-10-26T20:34:06.292Z,83.70
2022-10-26T20:36:34.074Z,83.72
2022-10-26T20:39:07.531Z,83.60
2022-10-26T20:41:45.968Z,83.80
2022-10-26T20:44:23.284Z,83.98
2022-10-26T20:46:52.607Z,83.83
2022-10-26T20:49:20.586Z,83.71
2022-10-26T20:52:19.362Z,83.59
2022-10-26T20:55:02.652Z,84.10
2022-10-26T20:57:33.220Z,84.57
2022-10-26T21:00:10.659Z,84.71
2022-10-26T21:02:38.763Z,84.70
2022-10-26T21:05:06.940Z,84.96
2022-10-26T21:07:34.760Z,84.89
2022-10-26T21:10:02.426Z,84.86
2022-10-26T21:12:30.124Z,84.56
2022-10-26T21:15:01.023Z,84.33
2022-10-26T21:17:28.706Z,84.24
2022-10-26T21:19:56.649Z,84.31
2022-10-26T21:22:28.006Z,84.39
2022-10-26T21:24:55.647Z,84.41
2022-10-26T21:27:26.286Z,84.83
2022-10-26T21:29:53.935Z,85.15
2022-10-26T21:32:21.577Z,85.43
2022-10-26T21:34:49.276Z,85.91
2022-10-26T21:37:17.042Z,85.86
2022-10-26T21:39:44.718Z,85.76
2022-10-26T21:42:15.309Z,85.89
2022-10-26T21:44:42.967Z,85.96
2022-10-26T21:47:13.797Z,85.92
2022-10-26T21:52:14.385Z,86.22
2022-10-26T21:54:42.772Z,86.72
2022-10-26T21:57:10.408Z,86.56
2022-10-26T21:59:38.094Z,86.52
2022-10-26T22:02:08.208Z,86.56
2022-10-26T22:04:38.927Z,86.68
2022-10-26T22:07:06.634Z,86.87
2022-10-26T22:09:40.644Z,86.98
2022-10-26T22:12:20.080Z,86.88
2022-10-26T22:14:47.712Z,86.80
2022-10-26T22:17:15.388Z,86.66
2022-10-26T22:19:43.032Z,86.58
2022-10-26T22:22:10.711Z,86.33
2022-10-26T22:24:38.369Z,86.31
2022-10-26T22:27:06.014Z,86.50
2022-10-26T22:29:36.202Z,86.68
2022-10-26T22:32:07.047Z,86.60
2022-10-26T22:34:34.777Z,86.45
2022-10-26T22:37:02.478Z,86.43
2022-10-26T22:39:30.157Z,86.35
2022-10-26T22:41:58.543Z,86.31
2022-10-26T22:44:26.243Z,86.48
2022-10-26T22:46:53.881Z,86.48
2022-10-26T22:49:21.679Z,86.47
2022-10-26T22:51:49.339Z,86.64
2022-10-26T22:54:17.147Z,86.80
2022-10-26T22:56:44.789Z,86.81
2022-10-26T22:59:12.449Z,86.89
2022-10-26T23:01:41.985Z,86.94
2022-10-26T23:04:13.390Z,87.12
2022-10-26T23:06:41.278Z,87.33
2022-10-26T23:09:08.936Z,87.31
2022-10-26T23:11:36.705Z,87.17
2022-10-26T23:14:07.388Z,87.08
2022-10-26T23:16:35.099Z,87.00
2022-10-26T23:19:03.178Z,87.09
2022-10-26T23:21:30.923Z,87.08
2022-10-26T23:23:58.761Z,86.98
2022-10-26T23:26:33.618Z,86.86
2022-10-26T23:29:04.230Z,86.90
2022-10-26T23:31:31.885Z,86.89
2022-10-26T23:34:02.932Z,86.90
2022-10-26T23:36:30.623Z,86.84
2022-10-26T23:38:58.366Z,86.84
2022-10-26T23:41:26.126Z,86.78
2022-10-26T23:43:53.729Z,86.75
2022-10-26T23:46:21.574Z,86.77
2022-10-26T23:48:49.266Z,86.81
2022-10-26T23:51:16.943Z,86.91
2022-10-26T23:53:45.136Z,86.94
2022-10-26T23:56:12.820Z,87.02
2022-10-26T23:58:41.372Z,87.10
